sensor_id;sensor_type;location;lat;lon;timestamp;pressure;altitude;pressure_sealevel;temperature;humidity
74675;BME280;63200;48.810;12.352;2023-07-13T00:01:58;97320.50;;;18.36;87.14
74675;BME280;63200;48.810;12.352;2023-07-13T00:04:24;97333.81;;;18.46;86.97
74675;BME280;63200;48.810;12.352;2023-07-13T00:06:50;97355.00;;;18.46;86.90
74675;BME280;63200;48.810;12.352;2023-07-13T00:09:17;97347.91;;;18.45;86.73
74675;BME280;63200;48.810;12.352;2023-07-13T00:11:43;97356.00;;;18.41;86.37
74675;BME280;63200;48.810;12.352;2023-07-13T00:14:10;97365.28;;;18.37;86.19
74675;BME280;63200;48.810;12.352;2023-07-13T00:16:37;97354.63;;;18.35;86.00
74675;BME280;63200;48.810;12.352;2023-07-13T00:19:03;97326.44;;;18.26;85.93
74675;BME280;63200;48.810;12.352;2023-07-13T00:21:28;97349.78;;;18.32;86.28
74675;BME280;63200;48.810;12.352;2023-07-13T00:23:54;97332.25;;;18.24;85.91
74675;BME280;63200;48.810;12.352;2023-07-13T00:26:19;97330.19;;;18.21;85.94
74675;BME280;63200;48.810;12.352;2023-07-13T00:28:44;97310.25;;;18.12;85.94
74675;BME280;63200;48.810;12.352;2023-07-13T00:31:12;97334.56;;;18.22;85.91
74675;BME280;63200;48.810;12.352;2023-07-13T00:33:37;97327.78;;;18.20;85.82
74675;BME280;63200;48.810;12.352;2023-07-13T00:36:03;97331.94;;;18.26;85.91
74675;BME280;63200;48.810;12.352;2023-07-13T00:38:29;97314.84;;;18.20;85.99
74675;BME280;63200;48.810;12.352;2023-07-13T00:40:54;97316.31;;;18.18;85.95
74675;BME280;63200;48.810;12.352;2023-07-13T00:43:22;97319.69;;;18.23;85.95
74675;BME280;63200;48.810;12.352;2023-07-13T00:48:17;97337.22;;;18.31;85.59
74675;BME280;63200;48.810;12.352;2023-07-13T00:50:44;97341.56;;;18.32;85.81
74675;BME280;63200;48.810;12.352;2023-07-13T00:53:11;97338.81;;;18.32;85.65
74675;BME280;63200;48.810;12.352;2023-07-13T00:55:37;97342.38;;;18.33;85.67
74675;BME280;63200;48.810;12.352;2023-07-13T00:58:03;97341.75;;;18.27;85.78
74675;BME280;63200;48.810;12.352;2023-07-13T01:00:30;97340.03;;;18.22;85.83
74675;BME280;63200;48.810;12.352;2023-07-13T01:02:56;97334.91;;;18.21;86.07
74675;BME280;63200;48.810;12.352;2023-07-13T01:05:22;97306.63;;;17.99;86.05
74675;BME280;63200;48.810;12.352;2023-07-13T01:07:50;97340.72;;;18.19;86.13
74675;BME280;63200;48.810;12.352;2023-07-13T01:10:21;97325.44;;;18.09;86.21
74675;BME280;63200;48.810;12.352;2023-07-13T01:12:46;97336.72;;;18.17;86.23
74675;BME280;63200;48.810;12.352;2023-07-13T01:18:00;97337.38;;;18.13;85.96
74675;BME280;63200;48.810;12.352;2023-07-13T01:20:25;97327.06;;;18.10;86.07
74675;BME280;63200;48.810;12.352;2023-07-13T01:22:50;97325.78;;;18.08;86.01
74675;BME280;63200;48.810;12.352;2023-07-13T01:25:16;97321.78;;;18.05;86.17
74675;BME280;63200;48.810;12.352;2023-07-13T01:27:41;97330.03;;;18.05;86.54
74675;BME280;63200;48.810;12.352;2023-07-13T01:30:07;97328.69;;;18.11;86.60
74675;BME280;63200;48.810;12.352;2023-07-13T01:32:32;97330.19;;;18.21;86.34
74675;BME280;63200;48.810;12.352;2023-07-13T01:34:59;97336.25;;;18.27;86.22
74675;BME280;63200;48.810;12.352;2023-07-13T01:37:25;97335.13;;;18.28;85.97
74675;BME280;63200;48.810;12.352;2023-07-13T01:39:51;97318.06;;;18.22;86.09
74675;BME280;63200;48.810;12.352;2023-07-13T01:42:16;97308.00;;;18.26;86.06
74675;BME280;63200;48.810;12.352;2023-07-13T01:44:42;97314.53;;;18.22;85.96
74675;BME280;63200;48.810;12.352;2023-07-13T01:47:07;97318.19;;;18.26;86.06
74675;BME280;63200;48.810;12.352;2023-07-13T01:49:32;97321.53;;;18.31;86.02
74675;BME280;63200;48.810;12.352;2023-07-13T01:51:58;97318.44;;;18.33;86.02
74675;BME280;63200;48.810;12.352;2023-07-13T01:54:23;97315.56;;;18.29;85.90
74675;BME280;63200;48.810;12.352;2023-07-13T01:56:48;97326.09;;;18.27;86.09
74675;BME280;63200;48.810;12.352;2023-07-13T01:59:17;97321.03;;;18.29;85.93
74675;BME280;63200;48.810;12.352;2023-07-13T02:01:42;97327.56;;;18.25;85.94
74675;BME280;63200;48.810;12.352;2023-07-13T02:04:07;97327.03;;;18.31;85.99
74675;BME280;63200;48.810;12.352;2023-07-13T02:06:33;97333.78;;;18.34;85.89
74675;BME280;63200;48.810;12.352;2023-07-13T02:08:59;97333.44;;;18.36;87.37
74675;BME280;63200;48.810;12.352;2023-07-13T02:11:24;97319.00;;;18.26;85.81
74675;BME280;63200;48.810;12.352;2023-07-13T02:13:50;97313.34;;;18.23;85.95
74675;BME280;63200;48.810;12.352;2023-07-13T02:16:15;97327.03;;;18.31;85.99
74675;BME280;63200;48.810;12.352;2023-07-13T02:18:41;97325.06;;;18.32;86.45
74675;BME280;63200;48.810;12.352;2023-07-13T02:21:06;97331.03;;;18.34;86.25
74675;BME280;63200;48.810;12.352;2023-07-13T02:23:32;97338.94;;;18.36;86.21
74675;BME280;63200;48.810;12.352;2023-07-13T02:25:59;97340.06;;;18.35;86.25
74675;BME280;63200;48.810;12.352;2023-07-13T02:28:24;97331.94;;;18.26;86.25
74675;BME280;63200;48.810;12.352;2023-07-13T02:30:50;97336.25;;;18.27;86.44
74675;BME280;63200;48.810;12.352;2023-07-13T02:33:15;97330.19;;;18.21;86.49
74675;BME280;63200;48.810;12.352;2023-07-13T02:35:41;97322.16;;;18.16;86.53
74675;BME280;63200;48.810;12.352;2023-07-13T02:38:06;97328.00;;;18.14;86.76
74675;BME280;63200;48.810;12.352;2023-07-13T02:40:32;97340.03;;;18.22;86.95
74675;BME280;63200;48.810;12.352;2023-07-13T02:43:01;97333.88;;;18.25;86.97
74675;BME280;63200;48.810;12.352;2023-07-13T02:45:27;97328.91;;;18.19;87.04
74675;BME280;63200;48.810;12.352;2023-07-13T02:47:52;97330.78;;;18.27;86.88
74675;BME280;63200;48.810;12.352;2023-07-13T02:50:17;97330.06;;;18.18;87.33
74675;BME280;63200;48.810;12.352;2023-07-13T02:52:43;97341.03;;;18.18;87.46
74675;BME280;63200;48.810;12.352;2023-07-13T02:55:08;97339.91;;;18.19;87.59
74675;BME280;63200;48.810;12.352;2023-07-13T02:57:34;97324.78;;;18.12;87.66
74675;BME280;63200;48.810;12.352;2023-07-13T03:00:00;97328.69;;;18.11;87.77
74675;BME280;63200;48.810;12.352;2023-07-13T03:02:26;97345.63;;;18.13;88.04
74675;BME280;63200;48.810;12.352;2023-07-13T03:04:54;97343.78;;;18.18;88.04
74675;BME280;63200;48.810;12.352;2023-07-13T03:07:19;97324.88;;;18.04;88.22
74675;BME280;63200;48.810;12.352;2023-07-13T03:09:44;97343.22;;;18.12;88.45
74675;BME280;63200;48.810;12.352;2023-07-13T03:12:09;97347.69;;;18.17;88.53
74675;BME280;63200;48.810;12.352;2023-07-13T03:14:35;97327.06;;;18.10;88.40
74675;BME280;63200;48.810;12.352;2023-07-13T03:17:00;97339.13;;;18.18;88.33
74675;BME280;63200;48.810;12.352;2023-07-13T03:19:25;97343.47;;;18.19;88.31
74675;BME280;63200;48.810;12.352;2023-07-13T03:21:51;97336.78;;;18.08;88.09
74675;BME280;63200;48.810;12.352;2023-07-13T03:24:16;97351.59;;;18.15;88.14
74675;BME280;63200;48.810;12.352;2023-07-13T03:26:41;97353.50;;;18.15;88.11
74675;BME280;63200;48.810;12.352;2023-07-13T03:29:07;97363.97;;;18.22;87.95
74675;BME280;63200;48.810;12.352;2023-07-13T03:31:35;97355.75;;;18.22;87.89
74675;BME280;63200;48.810;12.352;2023-07-13T03:34:00;97367.88;;;18.21;87.87
74675;BME280;63200;48.810;12.352;2023-07-13T03:36:28;97355.94;;;18.17;87.67
74675;BME280;63200;48.810;12.352;2023-07-13T03:38:56;97369.78;;;18.20;87.62
74675;BME280;63200;48.810;12.352;2023-07-13T03:41:23;97370.94;;;18.19;87.61
74675;BME280;63200;48.810;12.352;2023-07-13T03:43:49;97378.84;;;18.21;87.44
74675;BME280;63200;48.810;12.352;2023-07-13T03:46:15;97367.97;;;18.24;87.45
74675;BME280;63200;48.810;12.352;2023-07-13T03:48:43;97374.00;;;18.18;87.56
74675;BME280;63200;48.810;12.352;2023-07-13T03:51:09;97360.38;;;18.09;87.48
74675;BME280;63200;48.810;12.352;2023-07-13T03:53:38;97371.75;;;18.20;87.68
74675;BME280;63200;48.810;12.352;2023-07-13T03:56:04;97381.13;;;18.19;87.89
74675;BME280;63200;48.810;12.352;2023-07-13T03:58:32;97310.84;;;17.75;87.69
74675;BME280;63200;48.810;12.352;2023-07-13T04:00:59;97379.19;;;18.19;87.90
74675;BME280;63200;48.810;12.352;2023-07-13T04:03:25;97381.81;;;18.15;87.78
74675;BME280;63200;48.810;12.352;2023-07-13T04:05:50;97380.97;;;18.15;87.91
74675;BME280;63200;48.810;12.352;2023-07-13T04:08:16;97387.09;;;18.21;87.75
74675;BME280;63200;48.810;12.352;2023-07-13T04:10:42;97381.72;;;18.24;87.51
74675;BME280;63200;48.810;12.352;2023-07-13T04:13:08;97373.38;;;18.21;87.25
74675;BME280;63200;48.810;12.352;2023-07-13T04:15:33;97388.63;;;18.30;87.04
74675;BME280;63200;48.810;12.352;2023-07-13T04:17:58;97387.34;;;18.28;86.57
74675;BME280;63200;48.810;12.352;2023-07-13T04:20:25;97395.88;;;18.35;85.87
74675;BME280;63200;48.810;12.352;2023-07-13T04:22:51;97379.91;;;18.28;85.37
74675;BME280;63200;48.810;12.352;2023-07-13T04:25:16;97371.22;;;18.39;84.94
74675;BME280;63200;48.810;12.352;2023-07-13T04:27:42;97383.50;;;18.41;84.69
74675;BME280;63200;48.810;12.352;2023-07-13T04:30:07;97376.53;;;18.44;84.54
74675;BME280;63200;48.810;12.352;2023-07-13T04:32:33;97378.47;;;18.43;84.24
74675;BME280;63200;48.810;12.352;2023-07-13T04:34:58;97351.63;;;18.28;83.70
74675;BME280;63200;48.810;12.352;2023-07-13T04:37:25;97383.97;;;18.43;83.32
74675;BME280;63200;48.810;12.352;2023-07-13T04:39:50;97384.66;;;18.40;82.89
74675;BME280;63200;48.810;12.352;2023-07-13T04:42:16;97375.22;;;18.29;83.06
74675;BME280;63200;48.810;12.352;2023-07-13T04:44:41;97399.19;;;18.41;82.80
74675;BME280;63200;48.810;12.352;2023-07-13T04:47:07;97392.56;;;18.42;82.88
74675;BME280;63200;48.810;12.352;2023-07-13T04:49:32;97399.13;;;18.50;83.07
74675;BME280;63200;48.810;12.352;2023-07-13T04:51:57;97383.41;;;18.50;83.10
74675;BME280;63200;48.810;12.352;2023-07-13T04:54:23;97389.72;;;18.51;82.96
74675;BME280;63200;48.810;12.352;2023-07-13T04:56:48;97392.59;;;18.54;82.79
74675;BME280;63200;48.810;12.352;2023-07-13T04:59:13;97403.97;;;18.65;82.72
74675;BME280;63200;48.810;12.352;2023-07-13T05:01:39;97405.34;;;18.59;82.49
74675;BME280;63200;48.810;12.352;2023-07-13T05:04:06;97408.75;;;18.56;82.78
74675;BME280;63200;48.810;12.352;2023-07-13T05:06:31;97413.78;;;18.54;82.51
74675;BME280;63200;48.810;12.352;2023-07-13T05:08:57;97420.16;;;18.45;82.88
74675;BME280;63200;48.810;12.352;2023-07-13T05:11:22;97419.56;;;18.40;82.50
74675;BME280;63200;48.810;12.352;2023-07-13T05:13:48;97412.66;;;18.34;83.24
74675;BME280;63200;48.810;12.352;2023-07-13T05:16:13;97417.50;;;18.37;82.82
74675;BME280;63200;48.810;12.352;2023-07-13T05:18:38;97427.13;;;18.43;83.12
74675;BME280;63200;48.810;12.352;2023-07-13T05:21:07;97419.22;;;18.41;82.78
74675;BME280;63200;48.810;12.352;2023-07-13T05:23:34;97431.44;;;18.53;82.47
74675;BME280;63200;48.810;12.352;2023-07-13T05:26:00;97432.50;;;18.60;82.32
74675;BME280;63200;48.810;12.352;2023-07-13T05:28:27;97422.63;;;18.59;81.96
74675;BME280;63200;48.810;12.352;2023-07-13T05:30:52;97438.16;;;18.76;81.43
74675;BME280;63200;48.810;12.352;2023-07-13T05:33:19;97437.25;;;18.85;81.20
74675;BME280;63200;48.810;12.352;2023-07-13T05:35:45;97443.84;;;19.05;80.63
74675;BME280;63200;48.810;12.352;2023-07-13T05:38:10;97435.16;;;19.03;79.71
74675;BME280;63200;48.810;12.352;2023-07-13T05:40:35;97439.38;;;19.00;78.93
74675;BME280;63200;48.810;12.352;2023-07-13T05:43:00;97446.28;;;19.31;78.35
74675;BME280;63200;48.810;12.352;2023-07-13T05:45:26;97456.16;;;19.32;77.37
74675;BME280;63200;48.810;12.352;2023-07-13T05:47:51;97456.16;;;19.32;76.57
74675;BME280;63200;48.810;12.352;2023-07-13T05:50:17;97444.31;;;19.19;76.79
74675;BME280;63200;48.810;12.352;2023-07-13T05:52:42;97447.56;;;19.21;77.61
74675;BME280;63200;48.810;12.352;2023-07-13T05:55:08;97448.81;;;19.24;77.02
74675;BME280;63200;48.810;12.352;2023-07-13T05:57:33;97469.34;;;19.26;76.43
74675;BME280;63200;48.810;12.352;2023-07-13T05:59:58;97453.28;;;19.28;75.37
74675;BME280;63200;48.810;12.352;2023-07-13T06:02:23;97469.34;;;19.39;75.92
74675;BME280;63200;48.810;12.352;2023-07-13T06:04:49;97475.34;;;19.41;74.95
74675;BME280;63200;48.810;12.352;2023-07-13T06:07:14;97463.25;;;19.21;73.37
74675;BME280;63200;48.810;12.352;2023-07-13T06:09:40;97473.50;;;19.45;73.77
74675;BME280;63200;48.810;12.352;2023-07-13T06:12:05;97449.06;;;19.56;73.29
74675;BME280;63200;48.810;12.352;2023-07-13T06:14:31;97438.16;;;19.59;71.38
74675;BME280;63200;48.810;12.352;2023-07-13T06:16:56;97468.09;;;19.86;70.82
74675;BME280;63200;48.810;12.352;2023-07-13T06:19:21;97477.53;;;19.97;69.80
74675;BME280;63200;48.810;12.352;2023-07-13T06:21:47;97472.22;;;20.04;69.45
74675;BME280;63200;48.810;12.352;2023-07-13T06:24:12;97471.50;;;20.20;68.68
74675;BME280;63200;48.810;12.352;2023-07-13T06:26:37;97463.28;;;20.07;67.93
74675;BME280;63200;48.810;12.352;2023-07-13T06:29:03;97473.75;;;20.02;68.33
74675;BME280;63200;48.810;12.352;2023-07-13T06:31:28;97466.16;;;19.86;68.63
74675;BME280;63200;48.810;12.352;2023-07-13T06:33:53;97479.69;;;19.79;67.99
74675;BME280;63200;48.810;12.352;2023-07-13T06:36:19;97485.09;;;19.88;68.50
74675;BME280;63200;48.810;12.352;2023-07-13T06:38:44;97475.09;;;19.83;68.82
74675;BME280;63200;48.810;12.352;2023-07-13T06:41:09;97480.38;;;19.88;67.80
74675;BME280;63200;48.810;12.352;2023-07-13T06:43:35;97490.38;;;19.80;68.27
74675;BME280;63200;48.810;12.352;2023-07-13T06:46:00;97491.28;;;19.60;69.03
74675;BME280;63200;48.810;12.352;2023-07-13T06:48:26;97485.75;;;19.35;68.81
74675;BME280;63200;48.810;12.352;2023-07-13T06:50:52;97486.78;;;19.30;68.55
74675;BME280;63200;48.810;12.352;2023-07-13T06:53:19;97499.88;;;19.58;69.10
74675;BME280;63200;48.810;12.352;2023-07-13T06:55:45;97473.97;;;19.84;66.54
74675;BME280;63200;48.810;12.352;2023-07-13T06:58:11;97496.28;;;20.73;65.05
74675;BME280;63200;48.810;12.352;2023-07-13T07:00:36;97483.53;;;20.96;61.71
74675;BME280;63200;48.810;12.352;2023-07-13T07:03:02;97491.91;;;21.00;60.60
74675;BME280;63200;48.810;12.352;2023-07-13T07:05:27;97494.97;;;21.27;59.95
74675;BME280;63200;48.810;12.352;2023-07-13T07:07:54;97494.72;;;21.32;59.67
74675;BME280;63200;48.810;12.352;2023-07-13T07:10:21;97497.31;;;21.41;58.23
74675;BME280;63200;48.810;12.352;2023-07-13T07:12:46;97497.69;;;21.87;58.96
74675;BME280;63200;48.810;12.352;2023-07-13T07:15:12;97506.00;;;22.23;57.04
74675;BME280;63200;48.810;12.352;2023-07-13T07:17:38;97497.41;;;22.28;54.31
74675;BME280;63200;48.810;12.352;2023-07-13T07:20:05;97494.91;;;21.87;55.22
74675;BME280;63200;48.810;12.352;2023-07-13T07:22:30;97509.34;;;21.96;57.44
74675;BME280;63200;48.810;12.352;2023-07-13T07:24:57;97496.09;;;21.70;56.99
74675;BME280;63200;48.810;12.352;2023-07-13T07:27:23;97507.09;;;22.02;57.61
74675;BME280;63200;48.810;12.352;2023-07-13T07:29:48;97502.94;;;22.28;56.51
74675;BME280;63200;48.810;12.352;2023-07-13T07:32:14;97515.56;;;21.93;55.80
74675;BME280;63200;48.810;12.352;2023-07-13T07:34:39;97507.56;;;21.56;56.87
74675;BME280;63200;48.810;12.352;2023-07-13T07:37:05;97518.72;;;21.60;56.11
74675;BME280;63200;48.810;12.352;2023-07-13T07:39:30;97513.03;;;22.20;55.33
74675;BME280;63200;48.810;12.352;2023-07-13T07:41:56;97522.19;;;22.40;53.78
74675;BME280;63200;48.810;12.352;2023-07-13T07:44:21;97515.66;;;22.88;54.12
74675;BME280;63200;48.810;12.352;2023-07-13T07:46:47;97499.94;;;22.53;53.98
74675;BME280;63200;48.810;12.352;2023-07-13T07:49:12;97509.47;;;22.75;54.52
74675;BME280;63200;48.810;12.352;2023-07-13T07:51:37;97519.47;;;22.60;52.98
74675;BME280;63200;48.810;12.352;2023-07-13T07:54:04;97530.88;;;23.17;52.80
74675;BME280;63200;48.810;12.352;2023-07-13T07:56:29;97528.91;;;23.18;49.98
74675;BME280;63200;48.810;12.352;2023-07-13T07:58:55;97516.88;;;23.10;50.83
74675;BME280;63200;48.810;12.352;2023-07-13T08:01:20;97525.19;;;23.10;49.83
74675;BME280;63200;48.810;12.352;2023-07-13T08:03:46;97525.13;;;23.26;48.66
74675;BME280;63200;48.810;12.352;2023-07-13T08:06:11;97535.84;;;23.97;50.06
74675;BME280;63200;48.810;12.352;2023-07-13T08:08:36;97524.53;;;24.97;48.94
74675;BME280;63200;48.810;12.352;2023-07-13T08:11:03;97544.06;;;24.70;46.19
74675;BME280;63200;48.810;12.352;2023-07-13T08:13:29;97528.31;;;24.82;47.26
74675;BME280;63200;48.810;12.352;2023-07-13T08:15:54;97513.09;;;25.02;44.49
74675;BME280;63200;48.810;12.352;2023-07-13T08:18:19;97519.81;;;24.40;45.62
74675;BME280;63200;48.810;12.352;2023-07-13T08:20:45;97527.25;;;24.93;45.19
74675;BME280;63200;48.810;12.352;2023-07-13T08:23:10;97523.47;;;25.91;45.41
74675;BME280;63200;48.810;12.352;2023-07-13T08:25:36;97528.63;;;26.45;42.18
74675;BME280;63200;48.810;12.352;2023-07-13T08:28:02;97540.38;;;26.83;42.23
74675;BME280;63200;48.810;12.352;2023-07-13T08:30:28;97556.75;;;25.81;38.65
74675;BME280;63200;48.810;12.352;2023-07-13T08:32:53;97562.19;;;25.28;41.00
74675;BME280;63200;48.810;12.352;2023-07-13T08:35:19;97564.72;;;24.76;42.52
74675;BME280;63200;48.810;12.352;2023-07-13T08:37:44;97565.63;;;25.18;42.82
74675;BME280;63200;48.810;12.352;2023-07-13T08:40:10;97574.81;;;24.88;39.71
74675;BME280;63200;48.810;12.352;2023-07-13T08:42:40;97570.34;;;24.80;39.36
74675;BME280;63200;48.810;12.352;2023-07-13T08:45:19;97577.34;;;24.43;40.71
74675;BME280;63200;48.810;12.352;2023-07-13T08:48:13;97574.88;;;24.11;40.62
74675;BME280;63200;48.810;12.352;2023-07-13T08:50:58;97580.66;;;24.26;41.89
74675;BME280;63200;48.810;12.352;2023-07-13T08:53:39;97574.41;;;24.59;39.44
74675;BME280;63200;48.810;12.352;2023-07-13T08:56:11;97589.81;;;24.03;40.44
74675;BME280;63200;48.810;12.352;2023-07-13T08:58:41;97575.28;;;23.44;41.39
74675;BME280;63200;48.810;12.352;2023-07-13T09:04:14;97595.06;;;22.84;43.55
74675;BME280;63200;48.810;12.352;2023-07-13T09:06:56;97592.88;;;23.32;42.76
74675;BME280;63200;48.810;12.352;2023-07-13T09:09:53;97579.31;;;23.46;43.12
74675;BME280;63200;48.810;12.352;2023-07-13T09:15:30;97587.53;;;25.57;39.01
74675;BME280;63200;48.810;12.352;2023-07-13T09:18:14;97579.50;;;25.49;38.59
74675;BME280;63200;48.810;12.352;2023-07-13T09:20:48;97591.34;;;25.83;37.57
74675;BME280;63200;48.810;12.352;2023-07-13T09:23:17;97586.81;;;25.64;37.26
74675;BME280;63200;48.810;12.352;2023-07-13T09:25:48;97567.53;;;26.38;37.64
74675;BME280;63200;48.810;12.352;2023-07-13T09:28:23;97581.66;;;26.70;34.87
74675;BME280;63200;48.810;12.352;2023-07-13T09:31:13;97591.13;;;27.39;33.29
74675;BME280;63200;48.810;12.352;2023-07-13T09:33:39;97588.97;;;27.00;34.53
74675;BME280;63200;48.810;12.352;2023-07-13T09:36:30;97597.84;;;27.20;33.61
74675;BME280;63200;48.810;12.352;2023-07-13T09:39:04;97599.09;;;27.41;34.03
74675;BME280;63200;48.810;12.352;2023-07-13T09:41:40;97600.44;;;28.26;32.97
74675;BME280;63200;48.810;12.352;2023-07-13T09:44:13;97603.63;;;28.29;32.40
74675;BME280;63200;48.810;12.352;2023-07-13T09:46:46;97592.69;;;27.30;33.82
74675;BME280;63200;48.810;12.352;2023-07-13T09:49:13;97601.44;;;25.61;34.33
74675;BME280;63200;48.810;12.352;2023-07-13T09:51:41;97593.94;;;25.65;35.71
74675;BME280;63200;48.810;12.352;2023-07-13T09:54:18;97593.84;;;26.48;36.26
74675;BME280;63200;48.810;12.352;2023-07-13T09:56:44;97594.44;;;26.71;36.04
74675;BME280;63200;48.810;12.352;2023-07-13T09:59:20;97606.06;;;26.32;35.09
74675;BME280;63200;48.810;12.352;2023-07-13T10:01:46;97597.63;;;26.77;36.24
74675;BME280;63200;48.810;12.352;2023-07-13T10:04:17;97608.31;;;27.59;36.72
74675;BME280;63200;48.810;12.352;2023-07-13T10:06:44;97599.94;;;28.64;33.85
74675;BME280;63200;48.810;12.352;2023-07-13T10:09:10;97603.56;;;27.71;34.01
74675;BME280;63200;48.810;12.352;2023-07-13T10:11:39;97603.34;;;27.06;35.60
74675;BME280;63200;48.810;12.352;2023-07-13T10:16:37;97597.78;;;25.91;33.93
74675;BME280;63200;48.810;12.352;2023-07-13T10:19:12;97618.84;;;25.92;35.16
74675;BME280;63200;48.810;12.352;2023-07-13T10:21:50;97609.09;;;25.71;36.55
74675;BME280;63200;48.810;12.352;2023-07-13T10:24:21;97612.16;;;26.00;34.86
74675;BME280;63200;48.810;12.352;2023-07-13T10:26:53;97611.53;;;26.73;36.40
74675;BME280;63200;48.810;12.352;2023-07-13T10:29:22;97617.50;;;27.67;36.75
74675;BME280;63200;48.810;12.352;2023-07-13T10:31:49;97594.84;;;28.12;33.67
74675;BME280;63200;48.810;12.352;2023-07-13T10:34:15;97592.84;;;28.31;32.64
74675;BME280;63200;48.810;12.352;2023-07-13T10:36:44;97605.97;;;28.66;32.93
74675;BME280;63200;48.810;12.352;2023-07-13T10:39:16;97593.59;;;27.73;33.32
74675;BME280;63200;48.810;12.352;2023-07-13T10:41:44;97611.16;;;27.88;33.61
74675;BME280;63200;48.810;12.352;2023-07-13T10:44:19;97601.88;;;29.00;35.01
74675;BME280;63200;48.810;12.352;2023-07-13T10:46:47;97592.84;;;29.55;32.32
74675;BME280;63200;48.810;12.352;2023-07-13T10:49:13;97600.53;;;29.37;31.96
74675;BME280;63200;48.810;12.352;2023-07-13T10:51:39;97595.03;;;27.24;34.02
74675;BME280;63200;48.810;12.352;2023-07-13T10:54:22;97585.63;;;27.68;34.31
74675;BME280;63200;48.810;12.352;2023-07-13T10:59:38;97587.25;;;28.27;33.84
74675;BME280;63200;48.810;12.352;2023-07-13T11:02:10;97598.00;;;28.50;30.80
74675;BME280;63200;48.810;12.352;2023-07-13T11:04:47;97597.91;;;28.97;31.50
74675;BME280;63200;48.810;12.352;2023-07-13T11:07:24;97592.06;;;29.55;30.48
74675;BME280;63200;48.810;12.352;2023-07-13T11:09:55;97597.13;;;28.89;31.43
74675;BME280;63200;48.810;12.352;2023-07-13T11:23:36;97591.28;;;28.12;28.63
74675;BME280;63200;48.810;12.352;2023-07-13T11:25:37;97582.06;;;28.29;29.99
74675;BME280;63200;48.810;12.352;2023-07-13T11:31:03;97584.81;;;28.58;28.77
74675;BME280;63200;48.810;12.352;2023-07-13T11:36:13;97589.69;;;29.50;27.17
74675;BME280;63200;48.810;12.352;2023-07-13T11:38:41;97598.63;;;29.19;27.15
74675;BME280;63200;48.810;12.352;2023-07-13T11:43:33;97593.75;;;29.38;28.52
74675;BME280;63200;48.810;12.352;2023-07-13T11:46:12;97586.13;;;29.49;28.46
74675;BME280;63200;48.810;12.352;2023-07-13T11:48:37;97601.28;;;29.48;27.87
74675;BME280;63200;48.810;12.352;2023-07-13T11:51:04;97597.56;;;29.69;26.38
74675;BME280;63200;48.810;12.352;2023-07-13T11:53:38;97600.31;;;29.77;26.72
74675;BME280;63200;48.810;12.352;2023-07-13T11:56:05;97593.22;;;28.51;27.82
74675;BME280;63200;48.810;12.352;2023-07-13T11:58:31;97596.81;;;29.65;28.14
74675;BME280;63200;48.810;12.352;2023-07-13T12:00:59;97588.69;;;29.89;26.95
74675;BME280;63200;48.810;12.352;2023-07-13T12:03:27;97593.91;;;29.02;27.51
74675;BME280;63200;48.810;12.352;2023-07-13T12:06:02;97584.38;;;28.81;27.14
74675;BME280;63200;48.810;12.352;2023-07-13T12:08:29;97592.66;;;29.10;27.54
74675;BME280;63200;48.810;12.352;2023-07-13T12:11:00;97596.22;;;29.18;28.45
74675;BME280;63200;48.810;12.352;2023-07-13T12:13:35;97591.53;;;29.74;25.62
74675;BME280;63200;48.810;12.352;2023-07-13T12:16:07;97579.00;;;29.37;26.73
74675;BME280;63200;48.810;12.352;2023-07-13T12:18:36;97585.66;;;30.18;26.53
74675;BME280;63200;48.810;12.352;2023-07-13T12:21:01;97586.19;;;30.44;25.50
74675;BME280;63200;48.810;12.352;2023-07-13T12:23:30;97585.53;;;30.29;26.42
74675;BME280;63200;48.810;12.352;2023-07-13T12:25:57;97570.53;;;30.04;25.42
74675;BME280;63200;48.810;12.352;2023-07-13T12:28:36;97570.59;;;30.84;26.30
74675;BME280;63200;48.810;12.352;2023-07-13T12:31:04;97575.78;;;30.44;26.52
74675;BME280;63200;48.810;12.352;2023-07-13T12:33:31;97562.81;;;31.30;24.88
74675;BME280;63200;48.810;12.352;2023-07-13T12:36:00;97565.19;;;30.24;25.48
74675;BME280;63200;48.810;12.352;2023-07-13T12:38:27;97567.38;;;30.48;25.13
74675;BME280;63200;48.810;12.352;2023-07-13T12:40:53;97563.22;;;29.65;25.90
74675;BME280;63200;48.810;12.352;2023-07-13T12:43:23;97553.69;;;30.12;26.07
74675;BME280;63200;48.810;12.352;2023-07-13T12:48:21;97546.66;;;31.11;24.27
74675;BME280;63200;48.810;12.352;2023-07-13T12:50:48;97548.97;;;30.47;24.16
74675;BME280;63200;48.810;12.352;2023-07-13T12:53:19;97546.44;;;29.65;25.17
74675;BME280;63200;48.810;12.352;2023-07-13T12:55:59;97559.50;;;29.83;24.44
74675;BME280;63200;48.810;12.352;2023-07-13T12:58:37;97547.16;;;29.77;24.50
74675;BME280;63200;48.810;12.352;2023-07-13T13:01:04;97545.19;;;29.70;26.95
74675;BME280;63200;48.810;12.352;2023-07-13T13:03:39;97540.94;;;30.52;24.41
74675;BME280;63200;48.810;12.352;2023-07-13T13:08:40;97541.69;;;30.11;24.24
74675;BME280;63200;48.810;12.352;2023-07-13T13:11:08;97535.25;;;29.65;25.90
74675;BME280;63200;48.810;12.352;2023-07-13T13:13:34;97524.53;;;30.09;25.54
74675;BME280;63200;48.810;12.352;2023-07-13T13:18:34;97522.50;;;29.61;24.53
74675;BME280;63200;48.810;12.352;2023-07-13T13:21:01;97525.19;;;30.20;24.16
74675;BME280;63200;48.810;12.352;2023-07-13T13:23:26;97515.91;;;30.31;24.75
74675;BME280;63200;48.810;12.352;2023-07-13T13:25:52;97521.13;;;29.87;25.55
74675;BME280;63200;48.810;12.352;2023-07-13T13:28:19;97525.09;;;29.89;26.27
74675;BME280;63200;48.810;12.352;2023-07-13T13:30:47;97519.38;;;30.00;26.48
74675;BME280;63200;48.810;12.352;2023-07-13T13:33:15;97507.28;;;30.14;24.26
74675;BME280;63200;48.810;12.352;2023-07-13T13:35:41;97518.03;;;30.19;24.45